Lahaska, Pennsylvania
Current Conditions -  °F | °C
As of 8:54 PM on Tuesday 21 Oct 2014 (Local Time) from KDYL Reporting Station
Broken Clouds Broken Clouds  
Wind Chill: 56°   Ceiling: 3300
Heat Index: 56°   Visibility: 10mi
Dew Point: 51°   Wind: 6mph
Humidity: 84%   Direction: 10°N
Pressure: 29.87"   Gusts: NA
Location:  40.35°N, 75.03°W
Report Text: KDYL 220054Z AUTO 01005KT 10SM SCT026 BKN033 13/11 A2987 RMK AO2 SLP117 T01330106
Loading
Personal Weather Stations






























Interactive Weather Map
Tropical Storm Tracking
New forecast layout! Learn more

10-Day Weather Forecast

Advertisements
Track Severe Weather on mobile